sensor_id;sensor_type;location;lat;lon;timestamp;P1;durP1;ratioP1;P2;durP2;ratioP2
19816;SDS011;68323;49.394;8.434;2023-11-18T00:01:34;18.40;;;10.90;;
19816;SDS011;68323;49.394;8.434;2023-11-18T00:04:00;17.13;;;9.20;;
19816;SDS011;68323;49.394;8.434;2023-11-18T00:06:25;11.83;;;7.60;;
19816;SDS011;68323;49.394;8.434;2023-11-18T00:08:51;12.13;;;7.20;;
19816;SDS011;68323;49.394;8.434;2023-11-18T00:11:17;10.33;;;7.23;;
19816;SDS011;68323;49.394;8.434;2023-11-18T00:13:43;10.60;;;7.47;;
19816;SDS011;68323;49.394;8.434;2023-11-18T00:16:09;8.17;;;6.80;;
19816;SDS011;68323;49.394;8.434;2023-11-18T00:18:40;10.30;;;7.17;;
19816;SDS011;68323;49.394;8.434;2023-11-18T00:21:06;11.17;;;7.33;;
19816;SDS011;68323;49.394;8.434;2023-11-18T00:23:32;13.50;;;7.80;;
19816;SDS011;68323;49.394;8.434;2023-11-18T00:25:58;10.90;;;7.63;;
19816;SDS011;68323;49.394;8.434;2023-11-18T00:28:24;12.20;;;8.00;;
19816;SDS011;68323;49.394;8.434;2023-11-18T00:30:50;14.60;;;8.50;;
19816;SDS011;68323;49.394;8.434;2023-11-18T00:33:15;14.83;;;8.87;;
19816;SDS011;68323;49.394;8.434;2023-11-18T00:35:41;19.47;;;10.63;;
19816;SDS011;68323;49.394;8.434;2023-11-18T00:38:07;14.17;;;9.93;;
19816;SDS011;68323;49.394;8.434;2023-11-18T00:40:33;13.97;;;10.33;;
19816;SDS011;68323;49.394;8.434;2023-11-18T00:42:58;16.03;;;9.93;;
19816;SDS011;68323;49.394;8.434;2023-11-18T00:45:27;15.23;;;10.33;;
19816;SDS011;68323;49.394;8.434;2023-11-18T00:47:53;14.53;;;10.30;;
19816;SDS011;68323;49.394;8.434;2023-11-18T00:50:19;14.00;;;9.70;;
19816;SDS011;68323;49.394;8.434;2023-11-18T00:52:45;16.00;;;9.80;;
19816;SDS011;68323;49.394;8.434;2023-11-18T00:55:13;14.83;;;10.10;;
19816;SDS011;68323;49.394;8.434;2023-11-18T00:57:39;16.63;;;10.43;;
19816;SDS011;68323;49.394;8.434;2023-11-18T01:00:08;17.27;;;9.87;;
19816;SDS011;68323;49.394;8.434;2023-11-18T01:02:39;15.40;;;9.43;;
19816;SDS011;68323;49.394;8.434;2023-11-18T01:05:08;14.60;;;9.37;;
19816;SDS011;68323;49.394;8.434;2023-11-18T01:07:35;17.03;;;10.20;;
19816;SDS011;68323;49.394;8.434;2023-11-18T01:10:02;14.47;;;9.90;;
19816;SDS011;68323;49.394;8.434;2023-11-18T01:12:28;15.07;;;9.97;;
19816;SDS011;68323;49.394;8.434;2023-11-18T01:14:54;17.67;;;11.27;;
19816;SDS011;68323;49.394;8.434;2023-11-18T01:17:20;16.23;;;11.30;;
19816;SDS011;68323;49.394;8.434;2023-11-18T01:19:47;16.03;;;11.00;;
19816;SDS011;68323;49.394;8.434;2023-11-18T01:22:12;19.13;;;11.50;;
19816;SDS011;68323;49.394;8.434;2023-11-18T01:24:38;19.33;;;12.20;;
19816;SDS011;68323;49.394;8.434;2023-11-18T01:27:03;18.73;;;12.03;;
19816;SDS011;68323;49.394;8.434;2023-11-18T01:29:29;19.37;;;12.67;;
19816;SDS011;68323;49.394;8.434;2023-11-18T01:31:55;19.53;;;12.30;;
19816;SDS011;68323;49.394;8.434;2023-11-18T01:34:22;19.50;;;11.90;;
19816;SDS011;68323;49.394;8.434;2023-11-18T01:36:48;17.00;;;11.53;;
19816;SDS011;68323;49.394;8.434;2023-11-18T01:39:16;19.00;;;11.37;;
19816;SDS011;68323;49.394;8.434;2023-11-18T01:41:43;18.70;;;11.73;;
19816;SDS011;68323;49.394;8.434;2023-11-18T01:44:09;16.97;;;11.80;;
19816;SDS011;68323;49.394;8.434;2023-11-18T01:46:35;18.37;;;12.53;;
19816;SDS011;68323;49.394;8.434;2023-11-18T01:49:02;18.93;;;13.07;;
19816;SDS011;68323;49.394;8.434;2023-11-18T01:51:29;21.53;;;13.03;;
19816;SDS011;68323;49.394;8.434;2023-11-18T01:53:58;20.63;;;13.43;;
19816;SDS011;68323;49.394;8.434;2023-11-18T01:56:25;21.33;;;14.30;;
19816;SDS011;68323;49.394;8.434;2023-11-18T01:58:52;23.50;;;15.20;;
19816;SDS011;68323;49.394;8.434;2023-11-18T02:01:21;21.50;;;14.40;;
19816;SDS011;68323;49.394;8.434;2023-11-18T02:03:47;23.40;;;14.10;;
19816;SDS011;68323;49.394;8.434;2023-11-18T02:06:12;23.67;;;14.20;;
19816;SDS011;68323;49.394;8.434;2023-11-18T02:08:39;21.00;;;14.13;;
19816;SDS011;68323;49.394;8.434;2023-11-18T02:11:12;23.57;;;14.80;;
19816;SDS011;68323;49.394;8.434;2023-11-18T02:13:48;19.23;;;12.87;;
19816;SDS011;68323;49.394;8.434;2023-11-18T02:16:17;23.60;;;14.47;;
19816;SDS011;68323;49.394;8.434;2023-11-18T02:18:45;26.07;;;14.27;;
19816;SDS011;68323;49.394;8.434;2023-11-18T02:21:12;21.37;;;14.10;;
19816;SDS011;68323;49.394;8.434;2023-11-18T02:23:40;26.17;;;16.80;;
19816;SDS011;68323;49.394;8.434;2023-11-18T02:26:07;34.90;;;21.47;;
19816;SDS011;68323;49.394;8.434;2023-11-18T02:28:34;33.57;;;22.30;;
19816;SDS011;68323;49.394;8.434;2023-11-18T02:31:02;30.63;;;18.87;;
19816;SDS011;68323;49.394;8.434;2023-11-18T02:33:42;26.83;;;17.37;;
19816;SDS011;68323;49.394;8.434;2023-11-18T02:36:39;31.83;;;17.47;;
19816;SDS011;68323;49.394;8.434;2023-11-18T02:39:04;29.60;;;17.50;;
19816;SDS011;68323;49.394;8.434;2023-11-18T02:41:35;34.93;;;17.97;;
19816;SDS011;68323;49.394;8.434;2023-11-18T02:44:06;33.30;;;19.37;;
19816;SDS011;68323;49.394;8.434;2023-11-18T02:46:35;34.20;;;19.13;;
19816;SDS011;68323;49.394;8.434;2023-11-18T02:49:02;33.43;;;19.20;;
19816;SDS011;68323;49.394;8.434;2023-11-18T02:51:28;35.20;;;19.70;;
19816;SDS011;68323;49.394;8.434;2023-11-18T02:53:56;34.53;;;20.03;;
19816;SDS011;68323;49.394;8.434;2023-11-18T02:56:22;40.40;;;21.83;;
19816;SDS011;68323;49.394;8.434;2023-11-18T02:58:47;39.53;;;21.37;;
19816;SDS011;68323;49.394;8.434;2023-11-18T03:01:13;42.53;;;21.63;;
19816;SDS011;68323;49.394;8.434;2023-11-18T03:03:39;39.70;;;21.97;;
19816;SDS011;68323;49.394;8.434;2023-11-18T03:06:04;44.70;;;22.63;;
19816;SDS011;68323;49.394;8.434;2023-11-18T03:08:31;38.23;;;22.23;;
19816;SDS011;68323;49.394;8.434;2023-11-18T03:10:56;43.70;;;23.03;;
19816;SDS011;68323;49.394;8.434;2023-11-18T03:13:23;38.23;;;21.70;;
19816;SDS011;68323;49.394;8.434;2023-11-18T03:15:49;36.67;;;20.30;;
19816;SDS011;68323;49.394;8.434;2023-11-18T03:18:15;39.17;;;20.93;;
19816;SDS011;68323;49.394;8.434;2023-11-18T03:20:44;40.90;;;21.93;;
19816;SDS011;68323;49.394;8.434;2023-11-18T03:23:09;40.23;;;22.37;;
19816;SDS011;68323;49.394;8.434;2023-11-18T03:25:35;43.57;;;22.43;;
19816;SDS011;68323;49.394;8.434;2023-11-18T03:28:01;43.80;;;24.37;;
19816;SDS011;68323;49.394;8.434;2023-11-18T03:30:26;43.17;;;23.60;;
19816;SDS011;68323;49.394;8.434;2023-11-18T03:32:54;46.80;;;24.50;;
19816;SDS011;68323;49.394;8.434;2023-11-18T03:35:20;45.07;;;24.20;;
19816;SDS011;68323;49.394;8.434;2023-11-18T03:37:45;42.57;;;24.03;;
19816;SDS011;68323;49.394;8.434;2023-11-18T03:40:12;43.87;;;24.33;;
19816;SDS011;68323;49.394;8.434;2023-11-18T03:42:39;44.60;;;25.07;;
19816;SDS011;68323;49.394;8.434;2023-11-18T03:45:07;41.93;;;24.87;;
19816;SDS011;68323;49.394;8.434;2023-11-18T03:47:34;45.60;;;25.03;;
19816;SDS011;68323;49.394;8.434;2023-11-18T03:50:00;45.97;;;25.10;;
19816;SDS011;68323;49.394;8.434;2023-11-18T03:52:26;46.90;;;25.73;;
19816;SDS011;68323;49.394;8.434;2023-11-18T03:54:52;45.53;;;25.17;;
19816;SDS011;68323;49.394;8.434;2023-11-18T03:57:20;46.03;;;24.73;;
19816;SDS011;68323;49.394;8.434;2023-11-18T03:59:45;44.00;;;25.13;;
19816;SDS011;68323;49.394;8.434;2023-11-18T04:02:11;48.10;;;24.53;;
19816;SDS011;68323;49.394;8.434;2023-11-18T04:04:37;45.40;;;25.37;;
19816;SDS011;68323;49.394;8.434;2023-11-18T04:07:03;42.43;;;25.47;;
19816;SDS011;68323;49.394;8.434;2023-11-18T04:09:29;42.43;;;25.17;;
19816;SDS011;68323;49.394;8.434;2023-11-18T04:11:58;50.67;;;26.40;;
19816;SDS011;68323;49.394;8.434;2023-11-18T04:14:25;51.40;;;26.40;;
19816;SDS011;68323;49.394;8.434;2023-11-18T04:16:51;47.00;;;26.83;;
19816;SDS011;68323;49.394;8.434;2023-11-18T04:19:17;48.73;;;26.90;;
19816;SDS011;68323;49.394;8.434;2023-11-18T04:21:42;48.17;;;26.87;;
19816;SDS011;68323;49.394;8.434;2023-11-18T04:24:12;49.73;;;26.87;;
19816;SDS011;68323;49.394;8.434;2023-11-18T04:26:38;52.30;;;27.57;;
19816;SDS011;68323;49.394;8.434;2023-11-18T04:29:04;53.97;;;28.53;;
19816;SDS011;68323;49.394;8.434;2023-11-18T04:31:29;53.47;;;27.83;;
19816;SDS011;68323;49.394;8.434;2023-11-18T04:33:55;53.23;;;27.00;;
19816;SDS011;68323;49.394;8.434;2023-11-18T04:36:20;52.83;;;27.17;;
19816;SDS011;68323;49.394;8.434;2023-11-18T04:38:47;57.30;;;29.67;;
19816;SDS011;68323;49.394;8.434;2023-11-18T04:41:13;62.20;;;30.30;;
19816;SDS011;68323;49.394;8.434;2023-11-18T04:43:40;56.87;;;28.63;;
19816;SDS011;68323;49.394;8.434;2023-11-18T04:46:06;61.53;;;30.47;;
19816;SDS011;68323;49.394;8.434;2023-11-18T04:48:33;67.60;;;31.80;;
19816;SDS011;68323;49.394;8.434;2023-11-18T04:50:59;64.80;;;32.40;;
19816;SDS011;68323;49.394;8.434;2023-11-18T04:53:25;71.40;;;33.77;;
19816;SDS011;68323;49.394;8.434;2023-11-18T04:55:54;81.70;;;35.40;;
19816;SDS011;68323;49.394;8.434;2023-11-18T04:58:20;73.97;;;33.97;;
19816;SDS011;68323;49.394;8.434;2023-11-18T05:00:46;66.63;;;34.47;;
19816;SDS011;68323;49.394;8.434;2023-11-18T05:03:13;68.87;;;32.77;;
19816;SDS011;68323;49.394;8.434;2023-11-18T05:05:39;56.40;;;30.23;;
19816;SDS011;68323;49.394;8.434;2023-11-18T05:08:05;60.63;;;31.73;;
19816;SDS011;68323;49.394;8.434;2023-11-18T05:10:31;65.93;;;32.87;;
19816;SDS011;68323;49.394;8.434;2023-11-18T05:12:58;61.20;;;30.63;;
19816;SDS011;68323;49.394;8.434;2023-11-18T05:15:26;63.87;;;30.80;;
19816;SDS011;68323;49.394;8.434;2023-11-18T05:17:52;56.37;;;28.47;;
19816;SDS011;68323;49.394;8.434;2023-11-18T05:20:19;58.17;;;29.73;;
19816;SDS011;68323;49.394;8.434;2023-11-18T05:22:45;61.17;;;29.67;;
19816;SDS011;68323;49.394;8.434;2023-11-18T05:25:11;60.83;;;28.67;;
19816;SDS011;68323;49.394;8.434;2023-11-18T05:27:37;276.83;;;37.17;;
19816;SDS011;68323;49.394;8.434;2023-11-18T05:30:05;57.77;;;27.73;;
19816;SDS011;68323;49.394;8.434;2023-11-18T05:32:32;80.70;;;29.67;;
19816;SDS011;68323;49.394;8.434;2023-11-18T05:34:58;123.70;;;31.97;;
19816;SDS011;68323;49.394;8.434;2023-11-18T05:37:24;54.77;;;27.03;;
19816;SDS011;68323;49.394;8.434;2023-11-18T05:39:50;61.03;;;29.23;;
19816;SDS011;68323;49.394;8.434;2023-11-18T05:42:27;70.40;;;29.10;;
19816;SDS011;68323;49.394;8.434;2023-11-18T05:44:52;66.43;;;28.90;;
19816;SDS011;68323;49.394;8.434;2023-11-18T05:47:24;78.00;;;29.47;;
19816;SDS011;68323;49.394;8.434;2023-11-18T05:49:52;74.47;;;30.00;;
19816;SDS011;68323;49.394;8.434;2023-11-18T05:52:22;81.20;;;30.73;;
19816;SDS011;68323;49.394;8.434;2023-11-18T05:54:48;61.77;;;29.53;;
19816;SDS011;68323;49.394;8.434;2023-11-18T05:57:16;68.60;;;30.87;;
19816;SDS011;68323;49.394;8.434;2023-11-18T05:59:43;67.20;;;30.47;;
19816;SDS011;68323;49.394;8.434;2023-11-18T06:02:09;86.33;;;31.80;;
19816;SDS011;68323;49.394;8.434;2023-11-18T06:04:42;70.53;;;32.43;;
19816;SDS011;68323;49.394;8.434;2023-11-18T06:07:10;72.00;;;33.23;;
19816;SDS011;68323;49.394;8.434;2023-11-18T06:09:38;79.13;;;35.13;;
19816;SDS011;68323;49.394;8.434;2023-11-18T06:12:16;82.60;;;35.53;;
19816;SDS011;68323;49.394;8.434;2023-11-18T06:14:42;81.13;;;34.67;;
19816;SDS011;68323;49.394;8.434;2023-11-18T06:17:09;90.00;;;36.90;;
19816;SDS011;68323;49.394;8.434;2023-11-18T06:19:38;117.50;;;38.70;;
19816;SDS011;68323;49.394;8.434;2023-11-18T06:22:03;138.23;;;38.07;;
19816;SDS011;68323;49.394;8.434;2023-11-18T06:24:30;184.03;;;40.30;;
19816;SDS011;68323;49.394;8.434;2023-11-18T06:26:56;121.77;;;37.70;;
19816;SDS011;68323;49.394;8.434;2023-11-18T06:29:24;198.37;;;44.57;;
19816;SDS011;68323;49.394;8.434;2023-11-18T06:31:50;131.73;;;39.83;;
19816;SDS011;68323;49.394;8.434;2023-11-18T06:34:15;154.63;;;40.33;;
19816;SDS011;68323;49.394;8.434;2023-11-18T06:36:41;144.63;;;39.70;;
19816;SDS011;68323;49.394;8.434;2023-11-18T06:39:06;133.00;;;37.63;;
19816;SDS011;68323;49.394;8.434;2023-11-18T06:41:33;105.50;;;35.00;;
19816;SDS011;68323;49.394;8.434;2023-11-18T06:43:58;107.00;;;34.33;;
19816;SDS011;68323;49.394;8.434;2023-11-18T06:48:58;119.53;;;36.70;;
19816;SDS011;68323;49.394;8.434;2023-11-18T06:51:25;120.47;;;35.97;;
19816;SDS011;68323;49.394;8.434;2023-11-18T06:53:52;127.80;;;36.83;;
19816;SDS011;68323;49.394;8.434;2023-11-18T06:56:22;134.93;;;36.83;;
19816;SDS011;68323;49.394;8.434;2023-11-18T06:58:51;110.73;;;32.80;;
19816;SDS011;68323;49.394;8.434;2023-11-18T07:01:17;114.53;;;33.53;;
19816;SDS011;68323;49.394;8.434;2023-11-18T07:03:43;102.07;;;31.20;;
19816;SDS011;68323;49.394;8.434;2023-11-18T07:06:10;99.60;;;30.33;;
19816;SDS011;68323;49.394;8.434;2023-11-18T07:08:36;94.17;;;30.67;;
19816;SDS011;68323;49.394;8.434;2023-11-18T07:11:02;113.27;;;29.97;;
19816;SDS011;68323;49.394;8.434;2023-11-18T07:13:28;86.90;;;28.83;;
19816;SDS011;68323;49.394;8.434;2023-11-18T07:15:54;89.67;;;28.30;;
19816;SDS011;68323;49.394;8.434;2023-11-18T07:18:21;79.63;;;28.90;;
19816;SDS011;68323;49.394;8.434;2023-11-18T07:20:48;78.63;;;28.60;;
19816;SDS011;68323;49.394;8.434;2023-11-18T07:23:16;290.77;;;36.43;;
19816;SDS011;68323;49.394;8.434;2023-11-18T07:25:42;250.97;;;33.47;;
19816;SDS011;68323;49.394;8.434;2023-11-18T07:28:09;68.53;;;26.17;;
19816;SDS011;68323;49.394;8.434;2023-11-18T07:30:35;74.87;;;26.07;;
19816;SDS011;68323;49.394;8.434;2023-11-18T07:33:02;65.43;;;25.50;;
19816;SDS011;68323;49.394;8.434;2023-11-18T07:35:28;98.13;;;27.43;;
19816;SDS011;68323;49.394;8.434;2023-11-18T07:37:54;67.30;;;25.77;;
19816;SDS011;68323;49.394;8.434;2023-11-18T07:40:20;58.30;;;23.97;;
19816;SDS011;68323;49.394;8.434;2023-11-18T07:42:53;61.07;;;24.77;;
19816;SDS011;68323;49.394;8.434;2023-11-18T07:45:20;61.47;;;25.60;;
19816;SDS011;68323;49.394;8.434;2023-11-18T07:47:48;56.73;;;25.07;;
19816;SDS011;68323;49.394;8.434;2023-11-18T07:50:15;53.17;;;24.13;;
19816;SDS011;68323;49.394;8.434;2023-11-18T07:52:42;55.07;;;24.70;;
19816;SDS011;68323;49.394;8.434;2023-11-18T07:55:08;53.03;;;23.50;;
19816;SDS011;68323;49.394;8.434;2023-11-18T07:57:36;624.53;;;44.80;;
19816;SDS011;68323;49.394;8.434;2023-11-18T08:00:01;46.13;;;22.83;;
19816;SDS011;68323;49.394;8.434;2023-11-18T08:02:34;60.40;;;24.20;;
19816;SDS011;68323;49.394;8.434;2023-11-18T08:05:05;52.57;;;23.17;;
19816;SDS011;68323;49.394;8.434;2023-11-18T08:07:38;49.47;;;22.73;;
19816;SDS011;68323;49.394;8.434;2023-11-18T08:10:03;47.70;;;22.83;;
19816;SDS011;68323;49.394;8.434;2023-11-18T08:12:30;41.20;;;21.53;;
19816;SDS011;68323;49.394;8.434;2023-11-18T08:14:57;37.90;;;20.83;;
19816;SDS011;68323;49.394;8.434;2023-11-18T08:17:24;39.67;;;19.47;;
19816;SDS011;68323;49.394;8.434;2023-11-18T08:19:50;32.50;;;18.73;;
19816;SDS011;68323;49.394;8.434;2023-11-18T08:22:17;37.60;;;18.80;;
19816;SDS011;68323;49.394;8.434;2023-11-18T08:24:44;31.93;;;18.50;;
19816;SDS011;68323;49.394;8.434;2023-11-18T08:27:10;39.00;;;21.17;;
19816;SDS011;68323;49.394;8.434;2023-11-18T08:29:36;37.67;;;21.20;;
19816;SDS011;68323;49.394;8.434;2023-11-18T08:32:03;46.07;;;26.23;;
19816;SDS011;68323;49.394;8.434;2023-11-18T08:34:30;34.13;;;18.70;;
19816;SDS011;68323;49.394;8.434;2023-11-18T08:36:55;31.27;;;16.93;;
19816;SDS011;68323;49.394;8.434;2023-11-18T08:39:22;31.10;;;17.73;;
19816;SDS011;68323;49.394;8.434;2023-11-18T08:41:50;27.83;;;15.80;;
19816;SDS011;68323;49.394;8.434;2023-11-18T08:44:16;26.10;;;15.60;;
19816;SDS011;68323;49.394;8.434;2023-11-18T08:46:42;30.33;;;15.17;;
19816;SDS011;68323;49.394;8.434;2023-11-18T08:49:08;26.93;;;14.33;;
19816;SDS011;68323;49.394;8.434;2023-11-18T08:51:39;27.50;;;15.03;;
19816;SDS011;68323;49.394;8.434;2023-11-18T08:54:07;28.40;;;16.77;;
19816;SDS011;68323;49.394;8.434;2023-11-18T08:56:47;21.37;;;12.60;;
19816;SDS011;68323;49.394;8.434;2023-11-18T08:59:19;19.07;;;12.47;;
19816;SDS011;68323;49.394;8.434;2023-11-18T09:01:50;54.27;;;14.30;;
19816;SDS011;68323;49.394;8.434;2023-11-18T09:04:20;22.93;;;13.83;;
19816;SDS011;68323;49.394;8.434;2023-11-18T09:06:49;20.63;;;12.33;;
19816;SDS011;68323;49.394;8.434;2023-11-18T09:09:19;28.57;;;14.90;;
19816;SDS011;68323;49.394;8.434;2023-11-18T09:11:56;23.83;;;14.63;;
19816;SDS011;68323;49.394;8.434;2023-11-18T09:14:26;22.53;;;12.37;;
19816;SDS011;68323;49.394;8.434;2023-11-18T09:16:52;18.40;;;10.80;;
19816;SDS011;68323;49.394;8.434;2023-11-18T09:19:23;26.97;;;10.60;;
19816;SDS011;68323;49.394;8.434;2023-11-18T09:21:49;17.70;;;10.57;;
19816;SDS011;68323;49.394;8.434;2023-11-18T09:24:16;16.93;;;9.27;;
19816;SDS011;68323;49.394;8.434;2023-11-18T09:26:44;14.27;;;8.90;;
19816;SDS011;68323;49.394;8.434;2023-11-18T09:29:13;16.23;;;8.70;;
19816;SDS011;68323;49.394;8.434;2023-11-18T09:31:42;11.13;;;7.57;;
19816;SDS011;68323;49.394;8.434;2023-11-18T09:34:13;11.53;;;7.73;;
19816;SDS011;68323;49.394;8.434;2023-11-18T09:36:42;14.13;;;8.37;;
19816;SDS011;68323;49.394;8.434;2023-11-18T09:39:09;12.30;;;7.33;;
19816;SDS011;68323;49.394;8.434;2023-11-18T09:41:53;11.90;;;8.43;;
19816;SDS011;68323;49.394;8.434;2023-11-18T09:44:23;11.47;;;7.50;;
19816;SDS011;68323;49.394;8.434;2023-11-18T09:46:52;12.13;;;8.07;;
19816;SDS011;68323;49.394;8.434;2023-11-18T09:49:29;14.53;;;8.13;;
19816;SDS011;68323;49.394;8.434;2023-11-18T09:52:04;17.50;;;9.17;;
19816;SDS011;68323;49.394;8.434;2023-11-18T09:59:56;15.73;;;8.90;;
19816;SDS011;68323;49.394;8.434;2023-11-18T10:02:35;11.97;;;8.60;;
19816;SDS011;68323;49.394;8.434;2023-11-18T10:05:05;13.43;;;9.13;;
19816;SDS011;68323;49.394;8.434;2023-11-18T10:07:37;13.73;;;9.87;;
19816;SDS011;68323;49.394;8.434;2023-11-18T10:10:07;14.30;;;9.47;;
19816;SDS011;68323;49.394;8.434;2023-11-18T10:12:43;13.53;;;9.37;;
19816;SDS011;68323;49.394;8.434;2023-11-18T10:15:11;13.20;;;8.83;;
19816;SDS011;68323;49.394;8.434;2023-11-18T10:17:42;12.97;;;9.17;;
19816;SDS011;68323;49.394;8.434;2023-11-18T10:20:22;13.23;;;9.40;;
19816;SDS011;68323;49.394;8.434;2023-11-18T10:23:05;14.63;;;9.27;;
19816;SDS011;68323;49.394;8.434;2023-11-18T10:25:34;14.67;;;9.60;;
19816;SDS011;68323;49.394;8.434;2023-11-18T10:28:01;16.70;;;9.17;;
19816;SDS011;68323;49.394;8.434;2023-11-18T10:30:27;16.40;;;9.90;;
19816;SDS011;68323;49.394;8.434;2023-11-18T10:32:59;12.97;;;9.33;;
19816;SDS011;68323;49.394;8.434;2023-11-18T10:35:34;15.60;;;9.70;;
19816;SDS011;68323;49.394;8.434;2023-11-18T10:38:04;14.30;;;8.87;;
19816;SDS011;68323;49.394;8.434;2023-11-18T10:40:31;15.60;;;8.03;;
19816;SDS011;68323;49.394;8.434;2023-11-18T10:43:00;11.97;;;7.83;;
19816;SDS011;68323;49.394;8.434;2023-11-18T10:45:26;44.87;;;8.13;;
19816;SDS011;68323;49.394;8.434;2023-11-18T10:47:52;31.57;;;7.93;;
19816;SDS011;68323;49.394;8.434;2023-11-18T10:50:21;19.77;;;7.33;;
19816;SDS011;68323;49.394;8.434;2023-11-18T10:52:47;13.20;;;7.57;;
19816;SDS011;68323;49.394;8.434;2023-11-18T10:55:13;17.97;;;7.03;;
19816;SDS011;68323;49.394;8.434;2023-11-18T10:57:44;17.77;;;8.40;;
19816;SDS011;68323;49.394;8.434;2023-11-18T11:00:11;16.57;;;7.17;;
19816;SDS011;68323;49.394;8.434;2023-11-18T11:02:40;12.43;;;7.00;;
19816;SDS011;68323;49.394;8.434;2023-11-18T11:05:07;16.27;;;6.63;;
19816;SDS011;68323;49.394;8.434;2023-11-18T11:07:33;14.10;;;6.20;;
19816;SDS011;68323;49.394;8.434;2023-11-18T11:09:59;11.43;;;6.73;;
19816;SDS011;68323;49.394;8.434;2023-11-18T11:12:29;10.33;;;6.70;;
19816;SDS011;68323;49.394;8.434;2023-11-18T11:15:01;11.90;;;6.60;;
19816;SDS011;68323;49.394;8.434;2023-11-18T11:17:39;9.10;;;5.37;;
19816;SDS011;68323;49.394;8.434;2023-11-18T11:20:11;9.87;;;5.47;;
19816;SDS011;68323;49.394;8.434;2023-11-18T11:28:21;11.20;;;4.97;;
19816;SDS011;68323;49.394;8.434;2023-11-18T11:33:49;8.50;;;5.30;;
19816;SDS011;68323;49.394;8.434;2023-11-18T11:36:24;9.20;;;5.20;;
19816;SDS011;68323;49.394;8.434;2023-11-18T11:39:06;9.70;;;5.70;;
19816;SDS011;68323;49.394;8.434;2023-11-18T11:41:39;9.07;;;5.50;;
19816;SDS011;68323;49.394;8.434;2023-11-18T11:44:11;9.07;;;5.77;;
19816;SDS011;68323;49.394;8.434;2023-11-18T11:46:38;7.43;;;5.50;;
19816;SDS011;68323;49.394;8.434;2023-11-18T11:49:07;14.80;;;6.43;;
19816;SDS011;68323;49.394;8.434;2023-11-18T11:51:53;10.17;;;6.33;;
19816;SDS011;68323;49.394;8.434;2023-11-18T11:54:32;13.73;;;6.80;;
19816;SDS011;68323;49.394;8.434;2023-11-18T11:57:03;15.23;;;7.97;;
19816;SDS011;68323;49.394;8.434;2023-11-18T11:59:34;15.00;;;8.77;;
19816;SDS011;68323;49.394;8.434;2023-11-18T12:02:16;13.87;;;7.40;;
19816;SDS011;68323;49.394;8.434;2023-11-18T12:04:45;24.73;;;9.47;;
19816;SDS011;68323;49.394;8.434;2023-11-18T12:07:17;89.63;;;27.07;;
19816;SDS011;68323;49.394;8.434;2023-11-18T12:09:45;42.50;;;16.63;;
19816;SDS011;68323;49.394;8.434;2023-11-18T12:12:17;11.47;;;6.97;;
19816;SDS011;68323;49.394;8.434;2023-11-18T12:14:51;10.07;;;6.77;;
19816;SDS011;68323;49.394;8.434;2023-11-18T12:18:09;11.83;;;6.37;;
19816;SDS011;68323;49.394;8.434;2023-11-18T12:23:22;9.27;;;6.00;;
19816;SDS011;68323;49.394;8.434;2023-11-18T12:25:49;10.03;;;6.00;;
19816;SDS011;68323;49.394;8.434;2023-11-18T12:28:19;9.13;;;5.20;;
19816;SDS011;68323;49.394;8.434;2023-11-18T12:30:51;10.40;;;6.00;;
19816;SDS011;68323;49.394;8.434;2023-11-18T12:33:21;9.30;;;5.67;;
19816;SDS011;68323;49.394;8.434;2023-11-18T12:41:36;9.47;;;6.03;;
19816;SDS011;68323;49.394;8.434;2023-11-18T12:49:19;9.37;;;4.97;;
19816;SDS011;68323;49.394;8.434;2023-11-18T12:51:55;6.97;;;4.60;;
19816;SDS011;68323;49.394;8.434;2023-11-18T12:54:22;9.20;;;4.87;;
19816;SDS011;68323;49.394;8.434;2023-11-18T12:56:52;8.40;;;4.50;;
19816;SDS011;68323;49.394;8.434;2023-11-18T12:59:19;12.93;;;5.47;;
19816;SDS011;68323;49.394;8.434;2023-11-18T13:01:52;9.50;;;4.80;;
19816;SDS011;68323;49.394;8.434;2023-11-18T13:04:23;9.30;;;5.27;;
19816;SDS011;68323;49.394;8.434;2023-11-18T13:06:50;16.40;;;5.20;;
19816;SDS011;68323;49.394;8.434;2023-11-18T13:09:16;131.10;;;8.23;;
19816;SDS011;68323;49.394;8.434;2023-11-18T13:11:56;30.30;;;5.50;;
19816;SDS011;68323;49.394;8.434;2023-11-18T13:14:26;40.07;;;6.00;;
19816;SDS011;68323;49.394;8.434;2023-11-18T13:16:55;10.30;;;5.17;;
19816;SDS011;68323;49.394;8.434;2023-11-18T13:19:25;45.20;;;6.10;;
19816;SDS011;68323;49.394;8.434;2023-11-18T13:21:58;10.83;;;4.03;;
19816;SDS011;68323;49.394;8.434;2023-11-18T13:24:25;9.50;;;4.40;;
19816;SDS011;68323;49.394;8.434;2023-11-18T13:26:54;8.33;;;4.60;;
19816;SDS011;68323;49.394;8.434;2023-11-18T13:29:22;10.50;;;4.17;;
19816;SDS011;68323;49.394;8.434;2023-11-18T13:31:48;12.37;;;4.30;;
19816;SDS011;68323;49.394;8.434;2023-11-18T13:34:16;6.73;;;4.50;;
19816;SDS011;68323;49.394;8.434;2023-11-18T13:36:42;8.70;;;3.80;;
19816;SDS011;68323;49.394;8.434;2023-11-18T13:39:09;6.70;;;3.30;;
19816;SDS011;68323;49.394;8.434;2023-11-18T13:41:43;7.83;;;3.80;;
19816;SDS011;68323;49.394;8.434;2023-11-18T13:44:10;7.93;;;3.67;;
19816;SDS011;68323;49.394;8.434;2023-11-18T13:46:41;5.70;;;3.83;;
19816;SDS011;68323;49.394;8.434;2023-11-18T13:49:07;7.70;;;4.03;;
19816;SDS011;68323;49.394;8.434;2023-11-18T13:51:33;8.23;;;3.73;;
19816;SDS011;68323;49.394;8.434;2023-11-18T13:54:00;7.43;;;3.60;;
19816;SDS011;68323;49.394;8.434;2023-11-18T13:56:27;5.60;;;3.40;;
19816;SDS011;68323;49.394;8.434;2023-11-18T13:58:53;6.10;;;3.77;;
19816;SDS011;68323;49.394;8.434;2023-11-18T14:01:19;6.57;;;3.70;;
19816;SDS011;68323;49.394;8.434;2023-11-18T14:03:46;8.90;;;3.70;;
19816;SDS011;68323;49.394;8.434;2023-11-18T14:06:13;6.87;;;3.57;;
19816;SDS011;68323;49.394;8.434;2023-11-18T14:08:42;7.93;;;3.73;;
19816;SDS011;68323;49.394;8.434;2023-11-18T14:11:08;6.23;;;3.80;;
19816;SDS011;68323;49.394;8.434;2023-11-18T14:13:34;6.10;;;3.27;;
19816;SDS011;68323;49.394;8.434;2023-11-18T14:16:01;7.20;;;3.53;;
19816;SDS011;68323;49.394;8.434;2023-11-18T14:18:27;6.30;;;3.70;;
19816;SDS011;68323;49.394;8.434;2023-11-18T14:20:52;5.97;;;3.87;;
19816;SDS011;68323;49.394;8.434;2023-11-18T14:23:19;7.37;;;3.80;;
19816;SDS011;68323;49.394;8.434;2023-11-18T14:25:46;9.97;;;3.50;;
19816;SDS011;68323;49.394;8.434;2023-11-18T14:28:12;9.67;;;3.70;;
19816;SDS011;68323;49.394;8.434;2023-11-18T14:30:38;7.97;;;3.33;;
19816;SDS011;68323;49.394;8.434;2023-11-18T14:33:05;5.73;;;3.17;;
19816;SDS011;68323;49.394;8.434;2023-11-18T14:35:31;6.03;;;3.40;;
19816;SDS011;68323;49.394;8.434;2023-11-18T14:37:58;4.77;;;2.90;;
19816;SDS011;68323;49.394;8.434;2023-11-18T14:40:25;9.20;;;2.93;;
19816;SDS011;68323;49.394;8.434;2023-11-18T14:42:52;5.27;;;2.63;;
19816;SDS011;68323;49.394;8.434;2023-11-18T14:45:19;4.63;;;3.17;;
19816;SDS011;68323;49.394;8.434;2023-11-18T14:47:45;8.10;;;3.30;;
19816;SDS011;68323;49.394;8.434;2023-11-18T14:50:12;6.57;;;3.80;;
19816;SDS011;68323;49.394;8.434;2023-11-18T14:52:48;6.73;;;3.20;;
19816;SDS011;68323;49.394;8.434;2023-11-18T14:55:16;6.47;;;2.97;;
19816;SDS011;68323;49.394;8.434;2023-11-18T14:57:42;5.03;;;3.03;;
19816;SDS011;68323;49.394;8.434;2023-11-18T15:00:09;8.17;;;4.20;;
19816;SDS011;68323;49.394;8.434;2023-11-18T15:02:48;6.23;;;3.90;;
19816;SDS011;68323;49.394;8.434;2023-11-18T15:05:15;9.93;;;4.73;;